sensor_id;sensor_type;location;lat;lon;timestamp;pressure;altitude;pressure_sealevel;temperature;humidity
49397;BME280;35615;41.410;2.194;2023-02-13T00:01:22;103376.97;;;13.20;46.79
49397;BME280;35615;41.410;2.194;2023-02-13T00:04:08;103380.59;;;13.22;46.56
49397;BME280;35615;41.410;2.194;2023-02-13T00:07:15;103379.09;;;13.14;46.92
49397;BME280;35615;41.410;2.194;2023-02-13T00:12:43;103366.63;;;13.08;46.57
49397;BME280;35615;41.410;2.194;2023-02-13T00:15:41;103371.00;;;13.09;46.93
49397;BME280;35615;41.410;2.194;2023-02-13T00:18:44;103372.06;;;13.00;47.27
49397;BME280;35615;41.410;2.194;2023-02-13T00:21:29;103366.06;;;13.01;46.99
49397;BME280;35615;41.410;2.194;2023-02-13T00:24:09;103371.97;;;12.98;46.61
49397;BME280;35615;41.410;2.194;2023-02-13T00:26:56;103368.91;;;12.92;47.38
49397;BME280;35615;41.410;2.194;2023-02-13T00:29:58;103373.09;;;12.90;47.33
49397;BME280;35615;41.410;2.194;2023-02-13T00:32:50;103365.56;;;12.82;46.75
49397;BME280;35615;41.410;2.194;2023-02-13T00:39:01;103367.94;;;12.78;46.49
49397;BME280;35615;41.410;2.194;2023-02-13T00:42:05;103360.88;;;12.76;47.47
49397;BME280;35615;41.410;2.194;2023-02-13T00:45:32;103365.59;;;12.70;47.28
49397;BME280;35615;41.410;2.194;2023-02-13T00:48:07;103367.28;;;12.69;47.06
49397;BME280;35615;41.410;2.194;2023-02-13T00:51:32;103351.03;;;12.72;47.16
49397;BME280;35615;41.410;2.194;2023-02-13T00:54:12;103353.13;;;12.64;47.11
49397;BME280;35615;41.410;2.194;2023-02-13T00:56:52;103353.56;;;12.59;47.47
49397;BME280;35615;41.410;2.194;2023-02-13T01:00:00;103346.69;;;12.59;47.29
49397;BME280;35615;41.410;2.194;2023-02-13T01:02:27;103349.72;;;12.65;46.77
49397;BME280;35615;41.410;2.194;2023-02-13T01:04:55;103353.66;;;12.60;47.16
49397;BME280;35615;41.410;2.194;2023-02-13T01:07:23;103353.66;;;12.60;46.88
49397;BME280;35615;41.410;2.194;2023-02-13T01:09:53;103360.22;;;12.55;47.09
49397;BME280;35615;41.410;2.194;2023-02-13T01:12:20;103355.72;;;12.53;46.95
49397;BME280;35615;41.410;2.194;2023-02-13T01:14:48;103353.47;;;12.57;47.15
49397;BME280;35615;41.410;2.194;2023-02-13T01:17:19;103362.72;;;12.54;47.09
49397;BME280;35615;41.410;2.194;2023-02-13T01:19:46;103369.47;;;12.51;47.08
49397;BME280;35615;41.410;2.194;2023-02-13T01:22:15;103365.31;;;12.54;47.10
49397;BME280;35615;41.410;2.194;2023-02-13T01:24:46;103368.91;;;12.56;47.16
49397;BME280;35615;41.410;2.194;2023-02-13T01:27:13;103361.56;;;12.50;47.00
49397;BME280;35615;41.410;2.194;2023-02-13T01:29:44;103365.16;;;12.52;46.99
49397;BME280;35615;41.410;2.194;2023-02-13T01:32:12;103371.84;;;12.48;46.90
49397;BME280;35615;41.410;2.194;2023-02-13T01:34:44;103366.22;;;12.54;46.70
49397;BME280;35615;41.410;2.194;2023-02-13T01:37:12;103368.34;;;12.48;46.80
49397;BME280;35615;41.410;2.194;2023-02-13T01:39:45;103367.69;;;12.39;47.07
49397;BME280;35615;41.410;2.194;2023-02-13T01:42:23;103370.53;;;12.42;47.39
49397;BME280;35615;41.410;2.194;2023-02-13T01:44:55;103363.28;;;12.38;46.95
49397;BME280;35615;41.410;2.194;2023-02-13T01:47:41;103368.69;;;12.29;47.27
49397;BME280;35615;41.410;2.194;2023-02-13T01:50:27;103368.38;;;12.25;47.60
49397;BME280;35615;41.410;2.194;2023-02-13T01:53:07;103371.28;;;12.29;47.54
49397;BME280;35615;41.410;2.194;2023-02-13T01:55:53;103375.94;;;12.21;47.71
49397;BME280;35615;41.410;2.194;2023-02-13T01:58:24;103379.53;;;12.24;47.09
49397;BME280;35615;41.410;2.194;2023-02-13T02:01:00;103371.88;;;12.25;47.25
49397;BME280;35615;41.410;2.194;2023-02-13T02:03:42;103373.66;;;12.26;46.92
49397;BME280;35615;41.410;2.194;2023-02-13T02:06:40;103375.25;;;12.24;47.49
49397;BME280;35615;41.410;2.194;2023-02-13T02:09:17;103370.28;;;12.15;47.59
49397;BME280;35615;41.410;2.194;2023-02-13T02:15:09;103374.69;;;12.16;47.38
49397;BME280;35615;41.410;2.194;2023-02-13T02:17:57;103374.69;;;12.16;46.71
49397;BME280;35615;41.410;2.194;2023-02-13T02:21:10;103368.38;;;12.13;47.07
49397;BME280;35615;41.410;2.194;2023-02-13T02:30:38;103376.16;;;12.01;47.28
49397;BME280;35615;41.410;2.194;2023-02-13T02:39:17;103376.34;;;11.92;47.55
49397;BME280;35615;41.410;2.194;2023-02-13T02:44:38;103375.25;;;11.89;47.41
49397;BME280;35615;41.410;2.194;2023-02-13T02:47:27;103388.31;;;11.90;47.11
49397;BME280;35615;41.410;2.194;2023-02-13T02:53:15;103377.84;;;11.89;47.15
49397;BME280;35615;41.410;2.194;2023-02-13T02:55:57;103380.84;;;11.83;47.22
49397;BME280;35615;41.410;2.194;2023-02-13T02:58:41;103375.78;;;11.85;46.67
49397;BME280;35615;41.410;2.194;2023-02-13T03:02:03;103380.16;;;11.86;46.67
49397;BME280;35615;41.410;2.194;2023-02-13T03:04:55;103378.56;;;11.76;47.31
49397;BME280;35615;41.410;2.194;2023-02-13T03:07:44;103383.88;;;11.78;47.16
49397;BME280;35615;41.410;2.194;2023-02-13T03:10:26;103380.91;;;11.73;47.05
49397;BME280;35615;41.410;2.194;2023-02-13T03:13:38;103378.31;;;11.73;46.94
49397;BME280;35615;41.410;2.194;2023-02-13T03:16:14;103381.38;;;11.68;47.20
49397;BME280;35615;41.410;2.194;2023-02-13T03:19:01;103383.06;;;11.67;46.90
49397;BME280;35615;41.410;2.194;2023-02-13T03:21:58;103381.25;;;11.66;47.63
49397;BME280;35615;41.410;2.194;2023-02-13T03:25:18;103384.97;;;11.70;47.11
49397;BME280;35615;41.410;2.194;2023-02-13T03:28:09;103380.09;;;11.62;47.05
49397;BME280;35615;41.410;2.194;2023-02-13T03:36:36;103380.75;;;11.48;47.55
49397;BME280;35615;41.410;2.194;2023-02-13T03:45:03;103388.88;;;11.53;46.82
49397;BME280;35615;41.410;2.194;2023-02-13T03:47:54;103386.47;;;11.44;47.16
49397;BME280;35615;41.410;2.194;2023-02-13T03:50:24;103400.44;;;11.46;46.65
49397;BME280;35615;41.410;2.194;2023-02-13T03:52:59;103397.81;;;11.34;46.85
49397;BME280;35615;41.410;2.194;2023-02-13T03:55:33;103394.31;;;11.34;47.12
49397;BME280;35615;41.410;2.194;2023-02-13T03:58:26;103402.75;;;11.31;47.62
49397;BME280;35615;41.410;2.194;2023-02-13T04:01:16;103397.88;;;11.24;47.61
49397;BME280;35615;41.410;2.194;2023-02-13T04:07:05;103406.66;;;11.26;47.53
49397;BME280;35615;41.410;2.194;2023-02-13T04:09:12;103407.56;;;11.27;47.38
49397;BME280;35615;41.410;2.194;2023-02-13T04:12:39;103409.31;;;11.16;47.35
49397;BME280;35615;41.410;2.194;2023-02-13T04:15:15;103415.28;;;11.15;46.89
49397;BME280;35615;41.410;2.194;2023-02-13T04:18:04;103408.47;;;11.05;47.09
49397;BME280;35615;41.410;2.194;2023-02-13T04:20:35;103416.34;;;11.07;46.96
49397;BME280;35615;41.410;2.194;2023-02-13T04:23:07;103415.22;;;11.03;46.69
49397;BME280;35615;41.410;2.194;2023-02-13T04:25:38;103412.56;;;10.92;46.63
49397;BME280;35615;41.410;2.194;2023-02-13T04:28:07;103419.69;;;10.84;46.41
49397;BME280;35615;41.410;2.194;2023-02-13T04:30:34;103416.06;;;10.92;46.35
49397;BME280;35615;41.410;2.194;2023-02-13T04:33:04;103412.78;;;10.95;46.64
49397;BME280;35615;41.410;2.194;2023-02-13T04:35:32;103420.72;;;10.86;46.71
49397;BME280;35615;41.410;2.194;2023-02-13T04:38:03;103410.09;;;10.93;46.41
49397;BME280;35615;41.410;2.194;2023-02-13T04:40:36;103416.75;;;10.80;46.89
49397;BME280;35615;41.410;2.194;2023-02-13T04:43:05;103411.03;;;10.84;46.78
49397;BME280;35615;41.410;2.194;2023-02-13T04:45:33;103416.47;;;10.87;46.21
49397;BME280;35615;41.410;2.194;2023-02-13T04:48:02;103410.03;;;10.82;46.22
49397;BME280;35615;41.410;2.194;2023-02-13T04:50:32;103413.16;;;10.77;46.29
49397;BME280;35615;41.410;2.194;2023-02-13T04:53:00;103416.75;;;10.80;46.23
49397;BME280;35615;41.410;2.194;2023-02-13T04:55:28;103415.47;;;10.74;46.29
49397;BME280;35615;41.410;2.194;2023-02-13T04:57:55;103418.72;;;10.72;46.39
49397;BME280;35615;41.410;2.194;2023-02-13T05:00:24;103417.94;;;10.73;46.43
49397;BME280;35615;41.410;2.194;2023-02-13T05:03:06;103422.09;;;10.71;46.77
49397;BME280;35615;41.410;2.194;2023-02-13T05:05:39;103431.06;;;10.64;46.36
49397;BME280;35615;41.410;2.194;2023-02-13T05:08:07;103432.47;;;10.61;46.26
49397;BME280;35615;41.410;2.194;2023-02-13T05:10:34;103438.53;;;10.61;46.44
49397;BME280;35615;41.410;2.194;2023-02-13T05:13:02;103440.78;;;10.57;46.23
49397;BME280;35615;41.410;2.194;2023-02-13T05:15:29;103439.22;;;10.59;46.30
49397;BME280;35615;41.410;2.194;2023-02-13T05:17:57;103442.47;;;10.56;46.63
49397;BME280;35615;41.410;2.194;2023-02-13T05:20:24;103438.84;;;10.54;46.29
49397;BME280;35615;41.410;2.194;2023-02-13T05:22:55;103448.56;;;10.46;46.57
49397;BME280;35615;41.410;2.194;2023-02-13T05:25:41;103446.50;;;10.42;46.85
49397;BME280;35615;41.410;2.194;2023-02-13T05:28:08;103443.16;;;10.43;46.48
49397;BME280;35615;41.410;2.194;2023-02-13T05:30:56;103451.91;;;10.45;46.04
49397;BME280;35615;41.410;2.194;2023-02-13T05:33:26;103455.94;;;10.42;46.11
49397;BME280;35615;41.410;2.194;2023-02-13T05:35:53;103442.75;;;10.39;46.03
49397;BME280;35615;41.410;2.194;2023-02-13T05:38:20;103449.09;;;10.42;46.17
49397;BME280;35615;41.410;2.194;2023-02-13T05:40:50;103448.56;;;10.46;46.28
49397;BME280;35615;41.410;2.194;2023-02-13T05:43:23;103450.91;;;10.43;46.17
49397;BME280;35615;41.410;2.194;2023-02-13T05:45:59;103456.22;;;10.35;46.39
49397;BME280;35615;41.410;2.194;2023-02-13T05:48:30;103452.59;;;10.33;46.06
49397;BME280;35615;41.410;2.194;2023-02-13T05:51:00;103453.75;;;10.36;46.27
49397;BME280;35615;41.410;2.194;2023-02-13T05:53:28;103462.81;;;10.31;46.21
49397;BME280;35615;41.410;2.194;2023-02-13T05:55:55;103450.53;;;10.29;46.45
49397;BME280;35615;41.410;2.194;2023-02-13T05:58:25;103456.22;;;10.35;46.54
49397;BME280;35615;41.410;2.194;2023-02-13T06:00:57;103458.91;;;10.36;46.25
49397;BME280;35615;41.410;2.194;2023-02-13T06:03:28;103461.75;;;10.29;46.52
49397;BME280;35615;41.410;2.194;2023-02-13T06:05:57;103461.25;;;10.33;46.37
49397;BME280;35615;41.410;2.194;2023-02-13T06:08:25;103465.53;;;10.33;46.25
49397;BME280;35615;41.410;2.194;2023-02-13T06:10:55;103461.63;;;10.28;46.19
49397;BME280;35615;41.410;2.194;2023-02-13T06:13:22;103470.41;;;10.30;45.98
49397;BME280;35615;41.410;2.194;2023-02-13T06:15:59;103478.56;;;10.24;46.32
49397;BME280;35615;41.410;2.194;2023-02-13T06:18:35;103470.53;;;10.21;46.10
49397;BME280;35615;41.410;2.194;2023-02-13T06:21:13;103477.13;;;10.28;45.63
49397;BME280;35615;41.410;2.194;2023-02-13T06:24:12;103470.28;;;10.28;46.29
49397;BME280;35615;41.410;2.194;2023-02-13T06:26:46;103466.31;;;10.32;46.15
49397;BME280;35615;41.410;2.194;2023-02-13T06:29:17;103473.41;;;10.34;46.45
49397;BME280;35615;41.410;2.194;2023-02-13T06:32:01;103467.03;;;10.41;46.02
49397;BME280;35615;41.410;2.194;2023-02-13T06:34:29;103473.50;;;10.36;46.12
49397;BME280;35615;41.410;2.194;2023-02-13T06:37:01;103476.09;;;10.36;46.72
49397;BME280;35615;41.410;2.194;2023-02-13T06:39:28;103474.41;;;10.36;47.00
49397;BME280;35615;41.410;2.194;2023-02-13T06:41:57;103488.91;;;10.34;46.54
49397;BME280;35615;41.410;2.194;2023-02-13T06:44:32;103500.00;;;10.33;47.21
49397;BME280;35615;41.410;2.194;2023-02-13T06:47:00;103495.09;;;10.26;46.90
49397;BME280;35615;41.410;2.194;2023-02-13T06:49:28;103492.63;;;10.28;46.58
49397;BME280;35615;41.410;2.194;2023-02-13T06:52:02;103482.84;;;10.24;46.69
49397;BME280;35615;41.410;2.194;2023-02-13T06:54:42;103480.22;;;10.13;46.87
49397;BME280;35615;41.410;2.194;2023-02-13T06:57:17;103481.00;;;10.12;46.87
49397;BME280;35615;41.410;2.194;2023-02-13T06:59:53;103486.66;;;10.08;47.46
49397;BME280;35615;41.410;2.194;2023-02-13T07:02:39;103469.25;;;10.06;47.40
49397;BME280;35615;41.410;2.194;2023-02-13T07:05:13;103471.44;;;10.11;46.90
49397;BME280;35615;41.410;2.194;2023-02-13T07:07:45;103474.16;;;10.13;46.31
49397;BME280;35615;41.410;2.194;2023-02-13T07:10:35;103490.16;;;10.19;46.79
49397;BME280;35615;41.410;2.194;2023-02-13T07:13:11;103490.16;;;10.19;46.12
49397;BME280;35615;41.410;2.194;2023-02-13T07:15:40;103507.50;;;10.20;47.05
49397;BME280;35615;41.410;2.194;2023-02-13T07:18:08;103510.72;;;10.28;46.54
49397;BME280;35615;41.410;2.194;2023-02-13T07:20:36;103517.69;;;10.29;46.69
49397;BME280;35615;41.410;2.194;2023-02-13T07:23:04;103525.97;;;10.25;47.05
49397;BME280;35615;41.410;2.194;2023-02-13T07:25:38;103530.09;;;10.12;47.15
49397;BME280;35615;41.410;2.194;2023-02-13T07:28:08;103536.03;;;10.01;46.54
49397;BME280;35615;41.410;2.194;2023-02-13T07:30:36;103535.25;;;10.02;46.94
49397;BME280;35615;41.410;2.194;2023-02-13T07:33:04;103542.75;;;9.99;46.38
49397;BME280;35615;41.410;2.194;2023-02-13T07:35:47;103550.06;;;9.95;46.62
49397;BME280;35615;41.410;2.194;2023-02-13T07:38:16;103551.09;;;9.97;46.46
49397;BME280;35615;41.410;2.194;2023-02-13T07:40:44;103553.44;;;10.04;46.67
49397;BME280;35615;41.410;2.194;2023-02-13T07:43:15;103548.91;;;9.91;46.67
49397;BME280;35615;41.410;2.194;2023-02-13T07:45:43;103553.56;;;9.95;46.26
49397;BME280;35615;41.410;2.194;2023-02-13T07:48:15;103554.59;;;9.97;46.67
49397;BME280;35615;41.410;2.194;2023-02-13T07:50:50;103559.25;;;10.01;46.22
49397;BME280;35615;41.410;2.194;2023-02-13T07:53:18;103555.78;;;10.11;46.11
49397;BME280;35615;41.410;2.194;2023-02-13T07:55:45;103550.09;;;10.15;46.05
49397;BME280;35615;41.410;2.194;2023-02-13T07:58:13;103555.19;;;10.24;46.08
49397;BME280;35615;41.410;2.194;2023-02-13T08:00:43;103546.25;;;10.30;45.94
49397;BME280;35615;41.410;2.194;2023-02-13T08:03:18;103547.44;;;10.34;46.43
49397;BME280;35615;41.410;2.194;2023-02-13T08:05:46;103556.06;;;10.34;46.20
49397;BME280;35615;41.410;2.194;2023-02-13T08:08:16;103560.34;;;10.44;45.83
49397;BME280;35615;41.410;2.194;2023-02-13T08:10:46;103558.38;;;10.41;45.98
49397;BME280;35615;41.410;2.194;2023-02-13T08:13:33;103570.41;;;10.51;46.25
49397;BME280;35615;41.410;2.194;2023-02-13T08:16:02;103564.19;;;10.59;46.00
49397;BME280;35615;41.410;2.194;2023-02-13T08:18:32;103573.25;;;10.64;45.82
49397;BME280;35615;41.410;2.194;2023-02-13T08:21:03;103573.25;;;10.64;45.50
49397;BME280;35615;41.410;2.194;2023-02-13T08:23:33;103572.16;;;10.72;45.28
49397;BME280;35615;41.410;2.194;2023-02-13T08:26:01;103575.94;;;10.76;45.19
49397;BME280;35615;41.410;2.194;2023-02-13T08:28:35;103574.50;;;10.80;45.55
49397;BME280;35615;41.410;2.194;2023-02-13T08:31:09;103583.28;;;10.82;45.26
49397;BME280;35615;41.410;2.194;2023-02-13T08:33:40;103584.84;;;10.80;44.85
49397;BME280;35615;41.410;2.194;2023-02-13T08:36:10;103585.47;;;10.87;45.12
49397;BME280;35615;41.410;2.194;2023-02-13T08:38:40;103586.75;;;10.92;44.78
49397;BME280;35615;41.410;2.194;2023-02-13T08:41:16;103578.97;;;11.02;44.62
49397;BME280;35615;41.410;2.194;2023-02-13T08:43:49;103584.44;;;11.27;44.15
49397;BME280;35615;41.410;2.194;2023-02-13T08:46:25;103579.63;;;11.64;43.91
49397;BME280;35615;41.410;2.194;2023-02-13T08:48:53;103583.66;;;12.04;42.98
49397;BME280;35615;41.410;2.194;2023-02-13T08:51:21;103588.41;;;12.43;42.33
49397;BME280;35615;41.410;2.194;2023-02-13T08:53:48;103584.75;;;12.87;41.61
49397;BME280;35615;41.410;2.194;2023-02-13T08:56:16;103581.94;;;13.30;40.32
49397;BME280;35615;41.410;2.194;2023-02-13T08:58:46;103582.41;;;13.61;39.59
49397;BME280;35615;41.410;2.194;2023-02-13T09:01:17;103581.81;;;14.02;39.62
49397;BME280;35615;41.410;2.194;2023-02-13T09:03:47;103584.31;;;14.39;38.76
49397;BME280;35615;41.410;2.194;2023-02-13T09:06:18;103585.22;;;14.64;37.80
49397;BME280;35615;41.410;2.194;2023-02-13T09:08:46;103581.53;;;15.00;37.70
49397;BME280;35615;41.410;2.194;2023-02-13T09:11:19;103585.72;;;15.25;37.15
49397;BME280;35615;41.410;2.194;2023-02-13T09:13:53;103589.06;;;15.50;36.95
49397;BME280;35615;41.410;2.194;2023-02-13T09:16:22;103579.34;;;15.74;36.26
49397;BME280;35615;41.410;2.194;2023-02-13T09:18:50;103575.63;;;15.98;35.94
49397;BME280;35615;41.410;2.194;2023-02-13T09:21:21;103580.88;;;16.13;35.00
49397;BME280;35615;41.410;2.194;2023-02-13T09:23:50;103581.81;;;16.43;35.47
49397;BME280;35615;41.410;2.194;2023-02-13T09:26:21;103579.28;;;16.60;34.05
49397;BME280;35615;41.410;2.194;2023-02-13T09:28:51;103583.34;;;16.84;34.34
49397;BME280;35615;41.410;2.194;2023-02-13T09:31:22;103580.66;;;16.82;34.22
49397;BME280;35615;41.410;2.194;2023-02-13T09:33:53;103579.78;;;17.13;34.02
49397;BME280;35615;41.410;2.194;2023-02-13T09:36:22;103574.78;;;17.32;33.93
49397;BME280;35615;41.410;2.194;2023-02-13T09:38:55;103581.34;;;17.57;32.68
49397;BME280;35615;41.410;2.194;2023-02-13T09:41:35;103576.44;;;17.78;32.38
49397;BME280;35615;41.410;2.194;2023-02-13T09:44:15;103581.56;;;17.92;32.89
49397;BME280;35615;41.410;2.194;2023-02-13T09:50:11;103584.13;;;17.75;32.11
49397;BME280;35615;41.410;2.194;2023-02-13T09:52:43;103580.81;;;18.11;32.17
49397;BME280;35615;41.410;2.194;2023-02-13T09:57:56;103585.56;;;18.69;31.32
49397;BME280;35615;41.410;2.194;2023-02-13T10:00:40;103571.56;;;19.04;30.71
49397;BME280;35615;41.410;2.194;2023-02-13T10:03:31;103576.28;;;19.29;30.51
49397;BME280;35615;41.410;2.194;2023-02-13T10:06:29;103572.09;;;19.52;30.20
49397;BME280;35615;41.410;2.194;2023-02-13T10:11:41;103568.19;;;20.00;29.87
49397;BME280;35615;41.410;2.194;2023-02-13T10:17:03;103560.50;;;20.43;29.54
49397;BME280;35615;41.410;2.194;2023-02-13T10:19:46;103561.38;;;20.65;29.50
49397;BME280;35615;41.410;2.194;2023-02-13T10:22:22;103560.06;;;20.97;29.41
49397;BME280;35615;41.410;2.194;2023-02-13T10:25:11;103564.09;;;21.09;29.16
49397;BME280;35615;41.410;2.194;2023-02-13T10:27:49;103559.28;;;21.42;28.76
49397;BME280;35615;41.410;2.194;2023-02-13T10:30:31;103556.56;;;21.63;28.19
49397;BME280;35615;41.410;2.194;2023-02-13T10:33:33;103547.63;;;21.84;27.85
49397;BME280;35615;41.410;2.194;2023-02-13T10:36:19;103552.88;;;22.06;27.68
49397;BME280;35615;41.410;2.194;2023-02-13T10:44:41;103548.59;;;22.35;28.35
49397;BME280;35615;41.410;2.194;2023-02-13T10:47:33;103548.13;;;22.47;28.10
49397;BME280;35615;41.410;2.194;2023-02-13T10:53:29;103561.25;;;22.20;29.08
49397;BME280;35615;41.410;2.194;2023-02-13T10:58:53;103548.75;;;22.92;28.35
49397;BME280;35615;41.410;2.194;2023-02-13T11:04:44;103556.72;;;22.94;28.31
49397;BME280;35615;41.410;2.194;2023-02-13T11:07:17;103553.25;;;22.69;29.09
49397;BME280;35615;41.410;2.194;2023-02-13T11:09:55;103551.38;;;23.19;28.92
49397;BME280;35615;41.410;2.194;2023-02-13T11:12:40;103551.59;;;23.57;28.65
49397;BME280;35615;41.410;2.194;2023-02-13T11:15:26;103542.53;;;23.47;28.87
49397;BME280;35615;41.410;2.194;2023-02-13T11:18:20;103550.03;;;23.62;28.82
49397;BME280;35615;41.410;2.194;2023-02-13T11:21:16;103537.53;;;23.56;29.01
49397;BME280;35615;41.410;2.194;2023-02-13T11:24:27;103524.59;;;23.95;28.65
49397;BME280;35615;41.410;2.194;2023-02-13T11:27:12;103519.47;;;24.34;28.22
49397;BME280;35615;41.410;2.194;2023-02-13T11:30:04;103517.63;;;24.32;27.99
49397;BME280;35615;41.410;2.194;2023-02-13T11:32:59;103510.28;;;24.55;27.65
49397;BME280;35615;41.410;2.194;2023-02-13T11:35:34;103503.91;;;24.47;28.25
49397;BME280;35615;41.410;2.194;2023-02-13T11:40:43;103489.31;;;24.62;28.26
49397;BME280;35615;41.410;2.194;2023-02-13T11:45:45;103489.25;;;23.29;29.07
49397;BME280;35615;41.410;2.194;2023-02-13T11:48:20;103487.88;;;23.43;28.54
49397;BME280;35615;41.410;2.194;2023-02-13T11:50:55;103493.16;;;23.43;29.40
49397;BME280;35615;41.410;2.194;2023-02-13T11:53:36;103497.53;;;21.10;31.89
49397;BME280;35615;41.410;2.194;2023-02-13T11:56:15;103498.50;;;22.86;30.04
49397;BME280;35615;41.410;2.194;2023-02-13T11:59:02;103487.00;;;23.72;28.92
49397;BME280;35615;41.410;2.194;2023-02-13T12:01:34;103486.53;;;23.89;28.58
49397;BME280;35615;41.410;2.194;2023-02-13T12:04:23;103473.91;;;22.87;30.14
49397;BME280;35615;41.410;2.194;2023-02-13T12:07:26;103470.59;;;22.94;30.50
49397;BME280;35615;41.410;2.194;2023-02-13T12:13:19;103474.81;;;22.87;30.06
49397;BME280;35615;41.410;2.194;2023-02-13T12:18:59;103467.31;;;22.46;31.08
49397;BME280;35615;41.410;2.194;2023-02-13T12:45:42;103422.94;;;23.80;29.56
49397;BME280;35615;41.410;2.194;2023-02-13T12:48:49;103420.53;;;23.89;29.39
49397;BME280;35615;41.410;2.194;2023-02-13T13:09:52;103393.94;;;23.81;29.93
49397;BME280;35615;41.410;2.194;2023-02-13T13:12:57;103394.94;;;22.06;32.65
49397;BME280;35615;41.410;2.194;2023-02-13T13:15:50;103380.75;;;23.49;30.88
49397;BME280;35615;41.410;2.194;2023-02-13T13:27:05;103361.91;;;24.80;28.54
49397;BME280;35615;41.410;2.194;2023-02-13T13:29:53;103371.25;;;23.89;29.48
49397;BME280;35615;41.410;2.194;2023-02-13T13:32:31;103364.19;;;22.90;31.18
49397;BME280;35615;41.410;2.194;2023-02-13T13:35:23;103358.97;;;23.91;29.99
49397;BME280;35615;41.410;2.194;2023-02-13T13:40:51;103377.41;;;22.35;32.18
49397;BME280;35615;41.410;2.194;2023-02-13T13:44:01;103360.81;;;22.95;31.16
49397;BME280;35615;41.410;2.194;2023-02-13T13:47:05;103354.03;;;23.37;30.51
49397;BME280;35615;41.410;2.194;2023-02-13T13:50:03;103357.38;;;23.30;30.57
49397;BME280;35615;41.410;2.194;2023-02-13T13:52:43;103343.44;;;24.40;29.55
49397;BME280;35615;41.410;2.194;2023-02-13T13:58:46;103348.00;;;24.11;29.34
49397;BME280;35615;41.410;2.194;2023-02-13T14:04:36;103355.91;;;23.73;30.57
49397;BME280;35615;41.410;2.194;2023-02-13T14:07:24;103347.81;;;24.03;29.53
49397;BME280;35615;41.410;2.194;2023-02-13T14:09:52;103357.91;;;22.85;31.08
49397;BME280;35615;41.410;2.194;2023-02-13T14:26:39;103356.09;;;22.27;33.21
49397;BME280;35615;41.410;2.194;2023-02-13T14:31:44;103352.09;;;22.12;33.61
49397;BME280;35615;41.410;2.194;2023-02-13T14:34:33;103355.56;;;22.39;33.43
49397;BME280;35615;41.410;2.194;2023-02-13T14:40:10;103349.50;;;22.70;32.89
49397;BME280;35615;41.410;2.194;2023-02-13T14:45:45;103353.06;;;22.15;33.75
49397;BME280;35615;41.410;2.194;2023-02-13T14:48:16;103355.31;;;21.27;35.04
49397;BME280;35615;41.410;2.194;2023-02-13T14:50:51;103360.19;;;20.94;36.07
49397;BME280;35615;41.410;2.194;2023-02-13T14:53:45;103355.94;;;21.70;34.33
49397;BME280;35615;41.410;2.194;2023-02-13T14:56:26;103346.53;;;20.56;35.75
49397;BME280;35615;41.410;2.194;2023-02-13T15:01:50;103345.56;;;20.31;35.78
49397;BME280;35615;41.410;2.194;2023-02-13T15:04:39;103344.63;;;20.52;35.70
49397;BME280;35615;41.410;2.194;2023-02-13T15:07:31;103349.53;;;20.89;35.01
49397;BME280;35615;41.410;2.194;2023-02-13T15:10:11;103352.13;;;19.58;37.58
49397;BME280;35615;41.410;2.194;2023-02-13T15:13:02;103347.06;;;20.04;36.76
49397;BME280;35615;41.410;2.194;2023-02-13T15:15:36;103344.09;;;19.74;37.14
49397;BME280;35615;41.410;2.194;2023-02-13T15:18:23;103344.38;;;19.61;37.37
49397;BME280;35615;41.410;2.194;2023-02-13T15:20:57;103340.50;;;18.93;38.69
49397;BME280;35615;41.410;2.194;2023-02-13T15:23:32;103334.19;;;19.07;38.43
49397;BME280;35615;41.410;2.194;2023-02-13T15:26:18;103340.69;;;19.17;38.27
49397;BME280;35615;41.410;2.194;2023-02-13T15:29:02;103331.88;;;19.15;38.43
49397;BME280;35615;41.410;2.194;2023-02-13T15:31:44;103336.72;;;18.86;38.70
49397;BME280;35615;41.410;2.194;2023-02-13T15:34:32;103332.47;;;19.08;38.64
49397;BME280;35615;41.410;2.194;2023-02-13T15:37:27;103333.44;;;18.36;39.86
49397;BME280;35615;41.410;2.194;2023-02-13T15:40:35;103331.88;;;18.39;39.86
49397;BME280;35615;41.410;2.194;2023-02-13T15:43:39;103338.16;;;18.62;39.52
49397;BME280;35615;41.410;2.194;2023-02-13T15:49:00;103328.16;;;18.71;39.23
49397;BME280;35615;41.410;2.194;2023-02-13T15:51:39;103321.50;;;18.41;40.00
49397;BME280;35615;41.410;2.194;2023-02-13T15:54:30;103331.41;;;18.48;39.69
49397;BME280;35615;41.410;2.194;2023-02-13T15:57:09;103323.84;;;18.54;39.61
49397;BME280;35615;41.410;2.194;2023-02-13T15:59:44;103324.38;;;18.65;39.59
49397;BME280;35615;41.410;2.194;2023-02-13T16:05:15;103324.44;;;17.93;41.23
49397;BME280;35615;41.410;2.194;2023-02-13T16:08:30;103322.66;;;17.58;42.58
49397;BME280;35615;41.410;2.194;2023-02-13T16:16:34;103326.91;;;17.22;42.98
49397;BME280;35615;41.410;2.194;2023-02-13T16:19:06;103330.31;;;17.05;43.14
49397;BME280;35615;41.410;2.194;2023-02-13T16:21:50;103328.81;;;17.42;42.16
49397;BME280;35615;41.410;2.194;2023-02-13T16:24:19;103316.88;;;17.82;41.02
49397;BME280;35615;41.410;2.194;2023-02-13T16:26:48;103331.59;;;17.46;41.87
49397;BME280;35615;41.410;2.194;2023-02-13T16:29:36;103331.78;;;16.83;43.72
49397;BME280;35615;41.410;2.194;2023-02-13T16:32:09;103339.31;;;16.77;44.16
49397;BME280;35615;41.410;2.194;2023-02-13T16:34:42;103327.91;;;17.08;43.49
49397;BME280;35615;41.410;2.194;2023-02-13T16:37:55;103337.25;;;17.04;43.81
49397;BME280;35615;41.410;2.194;2023-02-13T16:41:01;103334.19;;;17.11;43.75
49397;BME280;35615;41.410;2.194;2023-02-13T16:43:59;103337.19;;;16.70;44.21
49397;BME280;35615;41.410;2.194;2023-02-13T16:47:01;103352.09;;;16.73;44.54
49397;BME280;35615;41.410;2.194;2023-02-13T16:52:31;103344.22;;;16.88;44.03